createdAt,value
2019-03-22T00:02:15.997Z,29.83
2019-03-22T00:04:46.208Z,29.60
2019-03-22T00:07:16.530Z,25.03
2019-03-22T00:09:46.826Z,30.13
2019-03-22T00:12:17.099Z,28.50
2019-03-22T00:14:47.429Z,31.07
2019-03-22T00:17:17.687Z,30.83
2019-03-22T00:19:47.949Z,32.30
2019-03-22T00:22:18.244Z,31.33
2019-03-22T00:24:48.546Z,30.47
2019-03-22T00:27:18.943Z,30.20
2019-03-22T00:29:49.154Z,29.87
2019-03-22T00:32:19.535Z,32.80
2019-03-22T00:34:49.799Z,30.10
2019-03-22T00:37:20.007Z,31.93
2019-03-22T00:39:50.478Z,28.43
2019-03-22T00:42:20.818Z,30.03
2019-03-22T00:44:51.005Z,25.17
2019-03-22T00:47:21.299Z,28.33
2019-03-22T00:49:51.577Z,28.77
2019-03-22T00:52:21.831Z,30.70
2019-03-22T00:54:52.133Z,29.63
2019-03-22T00:57:28.549Z,26.90
2019-03-22T00:59:54.511Z,31.93
2019-03-22T01:02:24.994Z,32.10
2019-03-22T01:04:55.578Z,33.90
2019-03-22T01:07:26.085Z,33.30
2019-03-22T01:09:56.650Z,32.27
2019-03-22T01:12:27.103Z,32.03
2019-03-22T01:14:57.987Z,28.00
2019-03-22T01:17:28.319Z,31.60
2019-03-22T01:19:58.499Z,34.77
2019-03-22T01:22:28.945Z,25.10
2019-03-22T01:24:59.282Z,31.97
2019-03-22T01:27:39.875Z,29.37
2019-03-22T01:30:01.813Z,33.50
2019-03-22T01:32:32.136Z,27.83
2019-03-22T01:35:02.464Z,32.90
2019-03-22T01:37:32.726Z,30.97
2019-03-22T01:40:03.010Z,32.63
2019-03-22T01:42:33.377Z,32.43
2019-03-22T01:45:03.864Z,32.53
2019-03-22T01:47:34.284Z,34.53
2019-03-22T01:50:05.526Z,35.97
2019-03-22T01:52:35.998Z,32.97
2019-03-22T01:55:06.748Z,35.30
2019-03-22T01:57:37.080Z,35.67
2019-03-22T02:00:09.218Z,31.00
2019-03-22T02:02:39.644Z,34.07
2019-03-22T02:05:10.074Z,32.77
2019-03-22T02:07:41.280Z,32.30
2019-03-22T02:10:11.780Z,24.80
2019-03-22T02:12:42.040Z,31.63
2019-03-22T02:15:13.945Z,34.13
2019-03-22T02:17:44.380Z,37.70
2019-03-22T02:20:15.707Z,35.80
2019-03-22T02:22:46.256Z,31.43
2019-03-22T02:25:16.585Z,38.30
2019-03-22T02:27:46.959Z,37.67
2019-03-22T02:30:17.507Z,26.97
2019-03-22T02:32:47.952Z,30.73
2019-03-22T02:35:28.232Z,37.90
2019-03-22T02:37:51.174Z,36.10
2019-03-22T02:40:22.110Z,40.77
2019-03-22T02:42:52.461Z,29.20
2019-03-22T02:45:22.711Z,29.50
2019-03-22T02:47:52.940Z,34.37
2019-03-22T02:50:23.231Z,36.00
2019-03-22T02:52:53.577Z,37.93
2019-03-22T02:55:23.890Z,35.37
2019-03-22T02:57:54.234Z,36.93
2019-03-22T03:00:24.526Z,36.00
2019-03-22T03:02:54.829Z,36.70
2019-03-22T03:05:25.246Z,26.70
2019-03-22T03:07:55.605Z,33.07
2019-03-22T03:10:25.851Z,32.30
2019-03-22T03:16:28.345Z,33.17
2019-03-22T03:18:58.561Z,31.10
2019-03-22T03:21:28.868Z,37.23
2019-03-22T03:23:59.258Z,35.97
2019-03-22T03:26:29.715Z,36.40
2019-03-22T03:28:59.964Z,35.40
2019-03-22T03:31:30.281Z,36.10
2019-03-22T03:34:01.050Z,33.47
2019-03-22T03:36:34.769Z,30.00
2019-03-22T03:39:04.351Z,35.07
2019-03-22T03:49:03.110Z,29.70
2019-03-22T03:51:33.419Z,37.47
2019-03-22T03:54:03.701Z,36.77
2019-03-22T03:56:34.063Z,35.57
2019-03-22T03:59:04.275Z,38.20
2019-03-22T04:01:34.670Z,39.23
2019-03-22T04:04:05.036Z,37.80
2019-03-22T04:06:35.370Z,35.90
2019-03-22T04:09:07.959Z,34.63
2019-03-22T04:11:38.286Z,28.00
2019-03-22T04:14:08.676Z,37.57
2019-03-22T04:16:39.055Z,27.83
2019-03-22T04:19:09.410Z,37.70
2019-03-22T04:21:40.640Z,35.97
2019-03-22T04:24:10.904Z,34.77
2019-03-22T04:26:41.240Z,31.03
2019-03-22T04:29:11.631Z,31.87
2019-03-22T04:31:41.935Z,28.77
2019-03-22T04:34:12.406Z,36.37
2019-03-22T04:36:42.787Z,34.13
2019-03-22T04:39:15.057Z,37.10
2019-03-22T04:41:45.559Z,33.67
2019-03-22T04:44:15.863Z,27.70
2019-03-22T04:46:47.014Z,38.60
2019-03-22T04:49:19.227Z,34.60
2019-03-22T04:51:50.112Z,33.60
2019-03-22T04:54:21.075Z,39.37
2019-03-22T04:56:52.516Z,31.07
2019-03-22T04:59:23.573Z,35.50
2019-03-22T05:01:56.216Z,35.97
2019-03-22T05:04:27.591Z,38.67
2019-03-22T05:06:59.199Z,39.70
2019-03-22T05:09:31.971Z,31.57
2019-03-22T05:12:04.607Z,35.80
2019-03-22T05:14:39.559Z,37.50
2019-03-22T05:17:13.457Z,27.40
2019-03-22T05:19:48.223Z,34.53
2019-03-22T05:22:21.494Z,31.97
2019-03-22T05:24:52.986Z,27.07
2019-03-22T05:27:25.582Z,34.33
2019-03-22T05:29:58.576Z,28.63
2019-03-22T05:32:29.066Z,35.20
2019-03-22T05:34:59.287Z,33.20
2019-03-22T05:37:29.889Z,33.20
2019-03-22T05:40:00.423Z,26.97
2019-03-22T05:42:31.765Z,36.83
2019-03-22T05:45:02.236Z,35.80
2019-03-22T05:47:32.645Z,36.43
2019-03-22T05:50:02.929Z,40.17
2019-03-22T05:52:33.152Z,30.00
2019-03-22T05:55:03.402Z,33.17
2019-03-22T05:57:33.928Z,32.13
2019-03-22T06:00:04.890Z,36.03
2019-03-22T06:02:35.307Z,35.17
2019-03-22T06:05:06.297Z,31.70
2019-03-22T06:07:38.468Z,35.50
2019-03-22T06:10:08.841Z,34.13
2019-03-22T06:12:39.156Z,32.30
2019-03-22T06:15:09.836Z,34.47
2019-03-22T06:17:51.294Z,32.70
2019-03-22T06:20:12.778Z,27.53
2019-03-22T06:22:43.327Z,36.13
2019-03-22T06:25:13.733Z,30.07
2019-03-22T06:54:12.025Z,36.37
2019-03-22T06:56:42.580Z,35.70
2019-03-22T06:59:13.099Z,36.17
2019-03-22T07:01:43.489Z,37.03
2019-03-22T07:04:14.078Z,29.43
2019-03-22T07:06:44.473Z,32.70
2019-03-22T07:09:14.922Z,31.00
2019-03-22T07:11:46.204Z,36.83
2019-03-22T07:14:16.574Z,35.27
2019-03-22T07:16:47.078Z,32.73
2019-03-22T07:19:17.536Z,37.37
2019-03-22T07:21:48.199Z,22.03
2019-03-22T07:24:18.647Z,32.40
2019-03-22T07:26:49.142Z,30.40
2019-03-22T07:29:19.590Z,34.37
2019-03-22T07:31:49.905Z,30.03
2019-03-22T07:34:20.279Z,28.57
2019-03-22T07:36:50.548Z,32.47
2019-03-22T07:39:21.021Z,32.70
2019-03-22T07:41:51.488Z,26.53
2019-03-22T07:44:21.955Z,32.53
2019-03-22T07:46:52.482Z,33.23
2019-03-22T07:49:22.673Z,30.47
2019-03-22T07:51:52.897Z,30.77
2019-03-22T07:54:23.264Z,37.57
2019-03-22T08:03:19.798Z,34.47
2019-03-22T08:05:51.386Z,33.37
2019-03-22T08:08:22.236Z,31.80
2019-03-22T08:10:52.655Z,27.77
2019-03-22T08:13:23.033Z,40.50
2019-03-22T08:15:53.335Z,34.83
2019-03-22T08:18:23.583Z,32.90
2019-03-22T08:20:53.995Z,33.87
2019-03-22T08:23:27.185Z,23.50
2019-03-22T08:25:57.689Z,32.07
2019-03-22T08:28:28.201Z,29.63
2019-03-22T08:30:58.677Z,36.50
2019-03-22T08:33:29.164Z,32.37
2019-03-22T08:35:59.756Z,38.43
2019-03-22T08:38:30.082Z,33.63
2019-03-22T08:41:00.532Z,34.07
2019-03-22T08:43:31.141Z,33.93
2019-03-22T08:46:01.656Z,37.33
2019-03-22T08:48:32.181Z,37.23
2019-03-22T08:51:02.661Z,39.20
2019-03-22T08:53:33.072Z,34.87
2019-03-22T08:56:03.557Z,34.70
2019-03-22T08:58:33.908Z,35.43
2019-03-22T09:01:04.317Z,36.27
2019-03-22T09:03:34.713Z,32.17
2019-03-22T09:06:07.781Z,29.60
2019-03-22T09:08:37.113Z,32.93
2019-03-22T09:11:08.160Z,26.70
2019-03-22T09:13:38.635Z,36.50
2019-03-22T09:16:09.125Z,34.30
2019-03-22T09:18:39.621Z,33.97
2019-03-22T09:21:10.645Z,32.03
2019-03-22T09:23:40.995Z,30.27
2019-03-22T09:26:11.473Z,34.33
2019-03-22T09:28:41.991Z,31.87
2019-03-22T09:31:12.522Z,31.73
2019-03-22T09:33:43.300Z,28.93
2019-03-22T09:36:13.774Z,31.70
2019-03-22T09:38:44.199Z,30.53
2019-03-22T09:41:14.612Z,32.30
2019-03-22T09:43:44.992Z,32.40
2019-03-22T09:46:15.369Z,31.77
2019-03-22T09:48:45.677Z,32.50
2019-03-22T09:51:16.062Z,28.87
2019-03-22T09:53:46.646Z,37.43
2019-03-22T09:56:17.249Z,36.40
2019-03-22T10:02:29.132Z,29.90
2019-03-22T10:05:00.429Z,32.17
2019-03-22T10:07:30.930Z,25.30
2019-03-22T10:10:02.874Z,33.47
2019-03-22T10:12:34.512Z,27.57
2019-03-22T10:15:06.284Z,28.80
2019-03-22T10:17:37.156Z,30.90
2019-03-22T10:20:07.741Z,31.50
2019-03-22T10:22:38.213Z,28.33
2019-03-22T10:25:08.809Z,32.70
2019-03-22T10:27:39.215Z,34.00
2019-03-22T10:30:10.459Z,31.57
2019-03-22T10:32:40.798Z,24.70
2019-03-22T10:35:25.049Z,32.17
2019-03-22T10:37:43.755Z,32.50
2019-03-22T10:40:15.407Z,33.77
2019-03-22T10:46:18.414Z,29.97
2019-03-22T10:48:48.721Z,30.13
2019-03-22T10:51:21.523Z,29.10
2019-03-22T10:53:55.369Z,32.00
2019-03-22T10:56:25.662Z,25.77
2019-03-22T10:58:58.264Z,26.53
2019-03-22T11:01:30.751Z,26.90
2019-03-22T11:04:01.375Z,23.60
2019-03-22T11:06:31.898Z,32.77
2019-03-22T11:09:02.666Z,28.83
2019-03-22T11:11:32.934Z,25.60
2019-03-22T11:14:03.278Z,24.20
2019-03-22T11:16:33.711Z,27.23
2019-03-22T11:19:03.986Z,29.73
2019-03-22T11:21:36.497Z,27.67
2019-03-22T11:24:06.958Z,28.43
2019-03-22T11:33:33.955Z,23.57
2019-03-22T11:36:04.276Z,24.33
2019-03-22T11:38:35.371Z,27.13
2019-03-22T11:41:06.684Z,23.17
2019-03-22T11:43:43.584Z,25.13
2019-03-22T11:46:13.971Z,23.93
2019-03-22T11:48:44.455Z,23.77
2019-03-22T11:51:14.818Z,23.47
2019-03-22T11:54:02.355Z,22.47
2019-03-22T11:56:32.886Z,23.10
2019-03-22T11:59:09.740Z,24.70
2019-03-22T12:01:55.163Z,19.37
2019-03-22T12:04:25.426Z,21.53
2019-03-22T12:06:55.729Z,22.93
2019-03-22T12:09:29.559Z,20.17
2019-03-22T12:11:59.942Z,20.57
2019-03-22T12:14:30.501Z,20.13
2019-03-22T12:17:00.982Z,20.37
2019-03-22T12:19:52.878Z,26.70
2019-03-22T12:22:17.705Z,22.10
2019-03-22T12:24:48.025Z,20.13
2019-03-22T12:27:18.411Z,22.13
2019-03-22T12:29:49.453Z,22.80
2019-03-22T12:32:19.799Z,19.90
2019-03-22T12:34:52.976Z,19.27
2019-03-22T12:37:24.633Z,21.77
2019-03-22T12:40:01.112Z,20.00
2019-03-22T12:42:31.443Z,17.17
2019-03-22T12:45:01.763Z,15.83
2019-03-22T12:47:31.976Z,16.07
2019-03-22T12:50:02.438Z,14.87
2019-03-22T12:52:32.945Z,18.33
2019-03-22T12:55:03.339Z,17.07
2019-03-22T12:57:33.682Z,15.60
2019-03-22T13:00:04.896Z,15.27
2019-03-22T13:02:42.271Z,13.37
2019-03-22T13:05:08.299Z,9.53
2019-03-22T13:07:38.992Z,8.23
2019-03-22T13:10:10.319Z,8.27
2019-03-22T13:16:28.686Z,9.70
2019-03-22T13:18:59.106Z,8.77
2019-03-22T13:21:30.800Z,8.90
2019-03-22T13:24:01.250Z,8.33
2019-03-22T13:26:31.624Z,8.97
2019-03-22T13:29:02.205Z,8.90
2019-03-22T13:31:32.635Z,8.30
2019-03-22T13:34:03.154Z,9.37
2019-03-22T13:36:33.694Z,9.53
2019-03-22T13:39:06.695Z,10.17
2019-03-22T13:41:37.395Z,11.00
2019-03-22T13:44:07.690Z,10.80
2019-03-22T13:46:40.401Z,10.00
2019-03-22T13:49:10.037Z,12.47
2019-03-22T13:51:40.356Z,10.03
2019-03-22T13:54:10.950Z,10.63
2019-03-22T13:56:41.441Z,11.40
2019-03-22T14:05:57.574Z,10.17
2019-03-22T14:08:27.925Z,12.80
2019-03-22T14:10:59.454Z,12.50
2019-03-22T14:13:29.970Z,11.27
2019-03-22T14:16:00.607Z,11.03
2019-03-22T14:18:32.571Z,14.13
2019-03-22T14:21:02.995Z,12.50
2019-03-22T14:23:33.425Z,11.73
2019-03-22T14:26:03.904Z,10.80
2019-03-22T14:28:34.257Z,11.50
2019-03-22T14:31:04.553Z,9.93
2019-03-22T14:33:34.922Z,10.47
2019-03-22T14:36:05.498Z,10.27
2019-03-22T14:38:35.937Z,9.57
2019-03-22T14:41:06.494Z,9.50
2019-03-22T14:43:36.921Z,10.73
2019-03-22T14:46:07.322Z,10.00
2019-03-22T14:48:37.702Z,10.67
2019-03-22T14:51:08.092Z,10.90
2019-03-22T14:53:38.605Z,10.70
2019-03-22T14:56:09.227Z,10.50
2019-03-22T15:02:12.052Z,10.10
2019-03-22T15:04:42.430Z,11.23
2019-03-22T15:07:19.598Z,10.30
2019-03-22T15:09:46.797Z,11.20
2019-03-22T15:12:17.230Z,11.83
2019-03-22T15:15:06.527Z,11.80
2019-03-22T15:17:45.884Z,12.47
2019-03-22T15:20:33.843Z,10.10
2019-03-22T15:23:22.117Z,10.73
2019-03-22T15:26:26.677Z,10.17
2019-03-22T15:32:47.349Z,10.40
2019-03-22T15:35:35.696Z,11.97
2019-03-22T15:38:25.177Z,10.93
2019-03-22T15:40:55.695Z,10.07
2019-03-22T15:47:07.688Z,10.97
2019-03-22T15:49:38.052Z,13.07
2019-03-22T15:52:08.378Z,11.93
2019-03-22T15:54:38.830Z,10.30
2019-03-22T16:03:47.129Z,10.43
2019-03-22T16:06:18.378Z,10.40
2019-03-22T16:08:48.832Z,9.40
2019-03-22T16:11:19.182Z,8.67
2019-03-22T16:17:30.949Z,11.17
2019-03-22T16:20:01.196Z,10.27
2019-03-22T16:22:31.572Z,9.17
2019-03-22T16:25:02.078Z,11.27
2019-03-22T16:27:32.476Z,9.97
2019-03-22T16:30:03.453Z,9.67
2019-03-22T16:32:33.835Z,10.03
2019-03-22T16:35:04.310Z,11.03
2019-03-22T16:37:34.604Z,11.30
2019-03-22T16:40:05.966Z,9.60
2019-03-22T16:42:36.435Z,11.40
2019-03-22T16:45:08.606Z,9.70
2019-03-22T16:47:39.112Z,10.67
2019-03-22T16:50:24.932Z,10.70
2019-03-22T16:52:56.791Z,10.00
2019-03-22T16:55:27.076Z,9.97
2019-03-22T16:57:58.709Z,11.17
2019-03-22T17:00:29.182Z,9.40
2019-03-22T17:02:59.598Z,10.43
2019-03-22T17:05:30.058Z,10.23
2019-03-22T17:08:00.550Z,8.30
2019-03-22T17:10:30.986Z,10.07
2019-03-22T17:13:01.294Z,9.90
2019-03-22T17:15:47.821Z,11.10
2019-03-22T17:19:27.539Z,11.70
2019-03-22T17:22:08.726Z,14.30
2019-03-22T17:24:38.111Z,10.57
2019-03-22T17:27:08.505Z,9.63
2019-03-22T17:29:38.856Z,8.60
2019-03-22T17:32:09.288Z,11.37
2019-03-22T17:34:39.507Z,9.30
2019-03-22T17:37:09.810Z,9.03
2019-03-22T17:39:40.291Z,12.33
2019-03-22T17:42:10.640Z,11.63
2019-03-22T17:44:41.033Z,11.37
2019-03-22T17:47:11.588Z,9.00
2019-03-22T17:49:48.255Z,9.33
2019-03-22T17:52:13.984Z,11.03
2019-03-22T17:54:44.273Z,10.20
2019-03-22T17:57:18.660Z,10.73
2019-03-22T17:59:46.993Z,10.73
2019-03-22T18:02:17.401Z,12.80
2019-03-22T18:04:47.757Z,13.43
2019-03-22T18:07:18.492Z,10.60
2019-03-22T18:09:48.719Z,11.93
2019-03-22T18:12:23.459Z,15.67
2019-03-22T18:14:54.193Z,14.03
2019-03-22T18:17:29.657Z,12.40
2019-03-22T18:20:00.417Z,14.10
2019-03-22T18:22:30.601Z,13.77
2019-03-22T18:25:01.119Z,17.10
2019-03-22T18:27:31.737Z,12.13
2019-03-22T18:30:02.282Z,11.97
2019-03-22T18:32:32.521Z,14.73
2019-03-22T18:35:02.956Z,13.60
2019-03-22T18:37:33.554Z,17.33
2019-03-22T18:40:04.537Z,13.93
2019-03-22T18:42:35.136Z,13.87
2019-03-22T18:48:38.022Z,15.07
2019-03-22T18:51:08.694Z,11.50
2019-03-22T18:53:39.413Z,14.87
2019-03-22T19:06:15.854Z,16.67
2019-03-22T19:08:46.272Z,20.47
2019-03-22T19:11:16.644Z,17.20
2019-03-22T19:13:46.943Z,14.63
2019-03-22T19:16:17.234Z,18.80
2019-03-22T19:18:47.471Z,18.40
2019-03-22T19:21:17.676Z,16.67
2019-03-22T19:23:47.933Z,17.47
2019-03-22T19:26:18.153Z,17.47
2019-03-22T19:28:48.744Z,17.83
2019-03-22T19:31:18.998Z,16.97
2019-03-22T19:33:49.369Z,20.67
2019-03-22T19:36:19.584Z,15.93
2019-03-22T19:38:49.823Z,20.17
2019-03-22T19:41:20.093Z,18.90
2019-03-22T19:43:50.804Z,18.23
2019-03-22T19:46:21.012Z,21.37
2019-03-22T19:48:51.406Z,19.77
2019-03-22T19:51:24.598Z,19.80
2019-03-22T19:53:55.458Z,20.90
2019-03-22T19:56:25.844Z,19.70
2019-03-22T20:06:58.124Z,22.23
2019-03-22T20:09:42.392Z,22.50
2019-03-22T20:12:12.825Z,19.17
2019-03-22T20:14:43.382Z,22.17
2019-03-22T20:17:13.724Z,17.03
2019-03-22T20:19:43.988Z,19.20
2019-03-22T20:22:14.376Z,20.83
2019-03-22T20:24:44.800Z,21.10
2019-03-22T20:27:15.478Z,18.90
2019-03-22T20:29:45.795Z,17.03
2019-03-22T20:32:22.056Z,16.57
2019-03-22T20:34:52.686Z,17.50
2019-03-22T20:37:23.289Z,23.10
2019-03-22T20:39:53.932Z,25.37
2019-03-22T20:42:24.548Z,22.33
2019-03-22T20:44:54.877Z,24.20
2019-03-22T20:47:25.354Z,21.80
2019-03-22T20:49:55.722Z,23.10
2019-03-22T20:52:26.080Z,17.87
2019-03-22T20:54:56.361Z,27.90
2019-03-22T20:57:27.192Z,22.13
2019-03-22T21:01:10.459Z,24.43
2019-03-22T21:03:48.621Z,43.63
2019-03-22T21:06:55.293Z,48.93
2019-03-22T21:09:42.655Z,22.37
2019-03-22T21:12:25.231Z,26.93
2019-03-22T21:14:55.774Z,22.47
2019-03-22T21:17:26.153Z,23.67
2019-03-22T21:19:56.532Z,23.10
2019-03-22T21:22:26.886Z,23.77
2019-03-22T21:24:57.161Z,27.00
2019-03-22T21:27:29.942Z,23.43
2019-03-22T21:30:00.898Z,22.50
2019-03-22T21:32:45.926Z,27.53
2019-03-22T21:35:36.918Z,19.77
2019-03-22T21:38:23.661Z,19.77
2019-03-22T21:41:08.609Z,21.93
2019-03-22T21:46:43.409Z,22.23
2019-03-22T21:49:26.892Z,23.97
2019-03-22T21:51:57.386Z,26.80
2019-03-22T21:54:27.692Z,28.90
2019-03-22T21:56:58.028Z,31.63
2019-03-22T22:03:30.835Z,28.93
2019-03-22T22:06:01.309Z,24.13
2019-03-22T22:08:31.797Z,26.90
2019-03-22T22:11:02.706Z,23.80
2019-03-22T22:13:33.474Z,25.33
2019-03-22T22:23:08.858Z,21.13
2019-03-22T22:25:39.203Z,22.87
2019-03-22T22:28:09.585Z,24.20
2019-03-22T22:30:40.218Z,28.13
2019-03-22T22:33:10.637Z,26.60
2019-03-22T22:35:41.119Z,30.37
2019-03-22T22:38:11.627Z,27.33
2019-03-22T22:40:42.202Z,31.77
2019-03-22T22:43:12.763Z,30.00
2019-03-22T22:45:43.047Z,28.70
2019-03-22T22:48:13.652Z,27.40
2019-03-22T22:50:44.288Z,25.73
2019-03-22T22:53:14.777Z,31.53
2019-03-22T22:55:45.255Z,29.10
2019-03-22T22:58:15.740Z,28.33
2019-03-22T23:00:46.675Z,30.57
2019-03-22T23:03:17.909Z,32.10
2019-03-22T23:05:48.346Z,34.93
2019-03-22T23:08:19.203Z,31.43
2019-03-22T23:10:49.506Z,27.10
2019-03-22T23:13:20.605Z,33.03
2019-03-22T23:15:51.265Z,36.03
2019-03-22T23:18:21.649Z,32.73
2019-03-22T23:20:52.155Z,33.53
2019-03-22T23:23:22.451Z,31.53
2019-03-22T23:25:53.157Z,32.57
2019-03-22T23:28:23.623Z,32.17
2019-03-22T23:30:54.233Z,34.57
2019-03-22T23:33:24.753Z,33.47
2019-03-22T23:35:55.157Z,35.57
2019-03-22T23:38:25.531Z,32.57
2019-03-22T23:40:56.342Z,34.53
2019-03-22T23:43:27.000Z,28.30
2019-03-22T23:45:57.444Z,31.30
2019-03-22T23:48:27.857Z,28.43
2019-03-22T23:50:58.277Z,28.67
2019-03-22T23:53:28.896Z,28.33
2019-03-22T23:55:59.241Z,31.10
2019-03-22T23:58:29.783Z,29.00
